sensor_id;sensor_type;location;lat;lon;timestamp;P1;durP1;ratioP1;P2;durP2;ratioP2
3747;SDS011;1889;50.058;8.688;2024-01-15T00:01:14;20.45;;;11.53;;
3747;SDS011;1889;50.058;8.688;2024-01-15T00:03:49;22.87;;;12.93;;
3747;SDS011;1889;50.058;8.688;2024-01-15T00:06:21;24.63;;;12.20;;
3747;SDS011;1889;50.058;8.688;2024-01-15T00:08:51;24.95;;;12.47;;
3747;SDS011;1889;50.058;8.688;2024-01-15T00:11:20;20.50;;;11.25;;
3747;SDS011;1889;50.058;8.688;2024-01-15T00:13:49;20.75;;;12.18;;
3747;SDS011;1889;50.058;8.688;2024-01-15T00:16:28;24.02;;;12.07;;
3747;SDS011;1889;50.058;8.688;2024-01-15T00:18:57;24.45;;;12.25;;
3747;SDS011;1889;50.058;8.688;2024-01-15T00:21:26;18.37;;;10.10;;
3747;SDS011;1889;50.058;8.688;2024-01-15T00:23:55;20.20;;;12.07;;
3747;SDS011;1889;50.058;8.688;2024-01-15T00:26:24;23.75;;;12.73;;
3747;SDS011;1889;50.058;8.688;2024-01-15T00:28:56;22.90;;;11.45;;
3747;SDS011;1889;50.058;8.688;2024-01-15T00:31:25;20.77;;;10.80;;
3747;SDS011;1889;50.058;8.688;2024-01-15T00:34:00;18.67;;;10.70;;
3747;SDS011;1889;50.058;8.688;2024-01-15T00:36:34;22.15;;;11.68;;
3747;SDS011;1889;50.058;8.688;2024-01-15T00:39:03;22.60;;;11.60;;
3747;SDS011;1889;50.058;8.688;2024-01-15T00:41:33;22.62;;;11.48;;
3747;SDS011;1889;50.058;8.688;2024-01-15T00:44:04;20.25;;;10.82;;
3747;SDS011;1889;50.058;8.688;2024-01-15T00:46:41;27.50;;;13.10;;
3747;SDS011;1889;50.058;8.688;2024-01-15T00:51:49;20.68;;;11.57;;
3747;SDS011;1889;50.058;8.688;2024-01-15T00:54:20;23.65;;;11.93;;
3747;SDS011;1889;50.058;8.688;2024-01-15T00:56:52;18.87;;;11.47;;
3747;SDS011;1889;50.058;8.688;2024-01-15T00:59:22;20.27;;;11.75;;
3747;SDS011;1889;50.058;8.688;2024-01-15T01:01:54;23.22;;;12.50;;
3747;SDS011;1889;50.058;8.688;2024-01-15T01:04:23;22.73;;;12.45;;
3747;SDS011;1889;50.058;8.688;2024-01-15T01:06:55;25.02;;;12.45;;
3747;SDS011;1889;50.058;8.688;2024-01-15T01:09:24;21.30;;;11.90;;
3747;SDS011;1889;50.058;8.688;2024-01-15T01:12:10;24.00;;;12.58;;
3747;SDS011;1889;50.058;8.688;2024-01-15T01:14:40;20.88;;;10.48;;
3747;SDS011;1889;50.058;8.688;2024-01-15T01:17:12;19.82;;;11.30;;
3747;SDS011;1889;50.058;8.688;2024-01-15T01:19:41;22.45;;;11.25;;
3747;SDS011;1889;50.058;8.688;2024-01-15T01:22:09;26.27;;;12.55;;
3747;SDS011;1889;50.058;8.688;2024-01-15T01:24:38;24.60;;;12.40;;
3747;SDS011;1889;50.058;8.688;2024-01-15T01:27:07;23.25;;;12.82;;
3747;SDS011;1889;50.058;8.688;2024-01-15T01:29:36;23.85;;;12.73;;
3747;SDS011;1889;50.058;8.688;2024-01-15T01:32:04;20.90;;;12.88;;
3747;SDS011;1889;50.058;8.688;2024-01-15T01:34:39;21.82;;;11.65;;
3747;SDS011;1889;50.058;8.688;2024-01-15T01:37:06;23.73;;;12.98;;
3747;SDS011;1889;50.058;8.688;2024-01-15T01:39:35;27.58;;;12.05;;
3747;SDS011;1889;50.058;8.688;2024-01-15T01:42:04;19.87;;;10.88;;
3747;SDS011;1889;50.058;8.688;2024-01-15T01:44:33;23.70;;;12.15;;
3747;SDS011;1889;50.058;8.688;2024-01-15T01:47:02;19.67;;;11.12;;
3747;SDS011;1889;50.058;8.688;2024-01-15T01:49:32;22.65;;;11.60;;
3747;SDS011;1889;50.058;8.688;2024-01-15T01:52:03;21.60;;;11.70;;
3747;SDS011;1889;50.058;8.688;2024-01-15T01:54:34;26.17;;;13.20;;
3747;SDS011;1889;50.058;8.688;2024-01-15T01:57:05;24.40;;;11.70;;
3747;SDS011;1889;50.058;8.688;2024-01-15T01:59:35;18.27;;;10.70;;
3747;SDS011;1889;50.058;8.688;2024-01-15T02:02:06;22.77;;;10.75;;
3747;SDS011;1889;50.058;8.688;2024-01-15T02:04:35;23.45;;;12.50;;
3747;SDS011;1889;50.058;8.688;2024-01-15T02:07:04;19.93;;;11.00;;
3747;SDS011;1889;50.058;8.688;2024-01-15T02:09:33;22.45;;;11.03;;
3747;SDS011;1889;50.058;8.688;2024-01-15T02:12:02;20.57;;;8.88;;
3747;SDS011;1889;50.058;8.688;2024-01-15T02:14:31;21.75;;;11.78;;
3747;SDS011;1889;50.058;8.688;2024-01-15T02:17:00;19.35;;;8.78;;
3747;SDS011;1889;50.058;8.688;2024-01-15T02:19:29;22.02;;;11.88;;
3747;SDS011;1889;50.058;8.688;2024-01-15T02:21:57;21.57;;;11.48;;
3747;SDS011;1889;50.058;8.688;2024-01-15T02:24:26;27.70;;;11.83;;
3747;SDS011;1889;50.058;8.688;2024-01-15T02:26:55;15.55;;;8.78;;
3747;SDS011;1889;50.058;8.688;2024-01-15T02:29:24;23.27;;;12.10;;
3747;SDS011;1889;50.058;8.688;2024-01-15T02:31:53;22.20;;;11.00;;
3747;SDS011;1889;50.058;8.688;2024-01-15T02:34:22;22.67;;;10.28;;
3747;SDS011;1889;50.058;8.688;2024-01-15T02:36:51;21.12;;;11.05;;
3747;SDS011;1889;50.058;8.688;2024-01-15T02:39:20;21.45;;;11.30;;
3747;SDS011;1889;50.058;8.688;2024-01-15T02:41:49;20.95;;;11.48;;
3747;SDS011;1889;50.058;8.688;2024-01-15T02:44:18;21.40;;;11.05;;
3747;SDS011;1889;50.058;8.688;2024-01-15T02:46:46;17.20;;;8.88;;
3747;SDS011;1889;50.058;8.688;2024-01-15T02:49:15;28.73;;;12.13;;
3747;SDS011;1889;50.058;8.688;2024-01-15T02:51:44;23.27;;;11.78;;
3747;SDS011;1889;50.058;8.688;2024-01-15T02:54:14;23.87;;;11.20;;
3747;SDS011;1889;50.058;8.688;2024-01-15T02:56:43;23.73;;;11.03;;
3747;SDS011;1889;50.058;8.688;2024-01-15T02:59:11;25.00;;;11.80;;
3747;SDS011;1889;50.058;8.688;2024-01-15T03:01:41;22.10;;;11.83;;
3747;SDS011;1889;50.058;8.688;2024-01-15T03:04:09;20.77;;;10.93;;
3747;SDS011;1889;50.058;8.688;2024-01-15T03:06:38;23.92;;;12.50;;
3747;SDS011;1889;50.058;8.688;2024-01-15T03:09:07;24.77;;;11.88;;
3747;SDS011;1889;50.058;8.688;2024-01-15T03:11:38;23.18;;;12.73;;
3747;SDS011;1889;50.058;8.688;2024-01-15T03:14:07;20.12;;;11.08;;
3747;SDS011;1889;50.058;8.688;2024-01-15T03:16:36;18.65;;;9.70;;
3747;SDS011;1889;50.058;8.688;2024-01-15T03:19:05;20.95;;;10.60;;
3747;SDS011;1889;50.058;8.688;2024-01-15T03:21:35;24.77;;;12.18;;
3747;SDS011;1889;50.058;8.688;2024-01-15T03:24:03;25.50;;;11.08;;
3747;SDS011;1889;50.058;8.688;2024-01-15T03:26:33;22.73;;;10.18;;
3747;SDS011;1889;50.058;8.688;2024-01-15T03:29:01;22.70;;;11.90;;
3747;SDS011;1889;50.058;8.688;2024-01-15T03:31:30;25.52;;;12.03;;
3747;SDS011;1889;50.058;8.688;2024-01-15T03:33:59;23.20;;;11.43;;
3747;SDS011;1889;50.058;8.688;2024-01-15T03:36:28;18.50;;;10.75;;
3747;SDS011;1889;50.058;8.688;2024-01-15T03:38:56;25.10;;;11.60;;
3747;SDS011;1889;50.058;8.688;2024-01-15T03:41:26;24.25;;;11.53;;
3747;SDS011;1889;50.058;8.688;2024-01-15T03:43:54;18.03;;;9.90;;
3747;SDS011;1889;50.058;8.688;2024-01-15T03:46:24;20.92;;;10.10;;
3747;SDS011;1889;50.058;8.688;2024-01-15T03:48:53;22.75;;;10.40;;
3747;SDS011;1889;50.058;8.688;2024-01-15T03:51:22;18.20;;;8.53;;
3747;SDS011;1889;50.058;8.688;2024-01-15T03:53:51;19.67;;;10.58;;
3747;SDS011;1889;50.058;8.688;2024-01-15T03:56:20;23.00;;;11.13;;
3747;SDS011;1889;50.058;8.688;2024-01-15T03:58:49;18.40;;;9.55;;
3747;SDS011;1889;50.058;8.688;2024-01-15T04:01:18;23.30;;;11.75;;
3747;SDS011;1889;50.058;8.688;2024-01-15T04:03:47;18.10;;;8.45;;
3747;SDS011;1889;50.058;8.688;2024-01-15T04:06:16;19.12;;;8.68;;
3747;SDS011;1889;50.058;8.688;2024-01-15T04:08:45;20.10;;;10.38;;
3747;SDS011;1889;50.058;8.688;2024-01-15T04:11:14;23.70;;;9.90;;
3747;SDS011;1889;50.058;8.688;2024-01-15T04:13:43;21.68;;;9.68;;
3747;SDS011;1889;50.058;8.688;2024-01-15T04:16:12;16.07;;;8.65;;
3747;SDS011;1889;50.058;8.688;2024-01-15T04:18:41;19.67;;;9.28;;
3747;SDS011;1889;50.058;8.688;2024-01-15T04:21:10;20.70;;;9.80;;
3747;SDS011;1889;50.058;8.688;2024-01-15T04:23:39;19.52;;;9.80;;
3747;SDS011;1889;50.058;8.688;2024-01-15T04:26:08;17.85;;;9.45;;
3747;SDS011;1889;50.058;8.688;2024-01-15T04:28:37;20.27;;;10.03;;
3747;SDS011;1889;50.058;8.688;2024-01-15T04:31:07;21.33;;;10.43;;
3747;SDS011;1889;50.058;8.688;2024-01-15T04:33:35;14.38;;;7.90;;
3747;SDS011;1889;50.058;8.688;2024-01-15T04:36:04;22.42;;;10.53;;
3747;SDS011;1889;50.058;8.688;2024-01-15T04:38:33;23.03;;;9.57;;
3747;SDS011;1889;50.058;8.688;2024-01-15T04:41:03;20.70;;;10.32;;
3747;SDS011;1889;50.058;8.688;2024-01-15T04:43:32;21.77;;;11.12;;
3747;SDS011;1889;50.058;8.688;2024-01-15T04:46:01;19.05;;;8.95;;
3747;SDS011;1889;50.058;8.688;2024-01-15T04:48:31;13.83;;;6.85;;
3747;SDS011;1889;50.058;8.688;2024-01-15T04:51:00;20.95;;;11.45;;
3747;SDS011;1889;50.058;8.688;2024-01-15T04:53:30;20.23;;;10.00;;
3747;SDS011;1889;50.058;8.688;2024-01-15T04:56:01;17.77;;;9.95;;
3747;SDS011;1889;50.058;8.688;2024-01-15T04:58:30;19.12;;;9.73;;
3747;SDS011;1889;50.058;8.688;2024-01-15T05:00:59;23.15;;;11.45;;
3747;SDS011;1889;50.058;8.688;2024-01-15T05:03:28;21.00;;;10.68;;
3747;SDS011;1889;50.058;8.688;2024-01-15T05:05:57;22.25;;;9.90;;
3747;SDS011;1889;50.058;8.688;2024-01-15T05:08:26;19.12;;;9.65;;
3747;SDS011;1889;50.058;8.688;2024-01-15T05:10:55;24.47;;;10.40;;
3747;SDS011;1889;50.058;8.688;2024-01-15T05:13:24;19.35;;;9.85;;
3747;SDS011;1889;50.058;8.688;2024-01-15T05:15:53;23.95;;;10.95;;
3747;SDS011;1889;50.058;8.688;2024-01-15T05:18:22;23.47;;;10.28;;
3747;SDS011;1889;50.058;8.688;2024-01-15T05:20:50;22.30;;;10.78;;
3747;SDS011;1889;50.058;8.688;2024-01-15T05:23:19;18.85;;;10.65;;
3747;SDS011;1889;50.058;8.688;2024-01-15T05:25:48;17.30;;;9.75;;
3747;SDS011;1889;50.058;8.688;2024-01-15T05:28:17;19.23;;;9.33;;
3747;SDS011;1889;50.058;8.688;2024-01-15T05:30:47;21.97;;;10.08;;
3747;SDS011;1889;50.058;8.688;2024-01-15T05:33:17;22.32;;;10.35;;
3747;SDS011;1889;50.058;8.688;2024-01-15T05:35:46;21.60;;;10.80;;
3747;SDS011;1889;50.058;8.688;2024-01-15T05:38:17;18.12;;;9.60;;
3747;SDS011;1889;50.058;8.688;2024-01-15T05:40:47;19.85;;;10.55;;
3747;SDS011;1889;50.058;8.688;2024-01-15T05:43:15;20.17;;;10.63;;
3747;SDS011;1889;50.058;8.688;2024-01-15T05:45:44;20.25;;;10.20;;
3747;SDS011;1889;50.058;8.688;2024-01-15T05:48:14;18.23;;;10.08;;
3747;SDS011;1889;50.058;8.688;2024-01-15T05:50:43;18.57;;;9.68;;
3747;SDS011;1889;50.058;8.688;2024-01-15T05:53:12;23.90;;;11.45;;
3747;SDS011;1889;50.058;8.688;2024-01-15T05:55:41;18.45;;;10.03;;
3747;SDS011;1889;50.058;8.688;2024-01-15T05:58:10;19.00;;;9.55;;
3747;SDS011;1889;50.058;8.688;2024-01-15T06:00:39;18.32;;;9.88;;
3747;SDS011;1889;50.058;8.688;2024-01-15T06:03:08;19.12;;;11.03;;
3747;SDS011;1889;50.058;8.688;2024-01-15T06:05:37;20.25;;;9.08;;
3747;SDS011;1889;50.058;8.688;2024-01-15T06:08:07;22.62;;;10.28;;
3747;SDS011;1889;50.058;8.688;2024-01-15T06:10:36;20.37;;;10.80;;
3747;SDS011;1889;50.058;8.688;2024-01-15T06:13:04;20.48;;;9.85;;
3747;SDS011;1889;50.058;8.688;2024-01-15T06:15:33;21.93;;;11.38;;
3747;SDS011;1889;50.058;8.688;2024-01-15T06:18:02;17.90;;;9.10;;
3747;SDS011;1889;50.058;8.688;2024-01-15T06:20:31;18.42;;;9.73;;
3747;SDS011;1889;50.058;8.688;2024-01-15T06:22:59;18.25;;;10.82;;
3747;SDS011;1889;50.058;8.688;2024-01-15T06:25:29;22.15;;;10.50;;
3747;SDS011;1889;50.058;8.688;2024-01-15T06:27:57;16.93;;;8.45;;
3747;SDS011;1889;50.058;8.688;2024-01-15T06:30:26;21.27;;;11.10;;
3747;SDS011;1889;50.058;8.688;2024-01-15T06:32:56;19.35;;;9.90;;
3747;SDS011;1889;50.058;8.688;2024-01-15T06:35:25;18.52;;;10.38;;
3747;SDS011;1889;50.058;8.688;2024-01-15T06:37:54;20.27;;;10.03;;
3747;SDS011;1889;50.058;8.688;2024-01-15T06:40:23;20.57;;;10.48;;
3747;SDS011;1889;50.058;8.688;2024-01-15T06:42:51;18.80;;;11.30;;
3747;SDS011;1889;50.058;8.688;2024-01-15T06:45:20;22.95;;;11.88;;
3747;SDS011;1889;50.058;8.688;2024-01-15T06:47:49;17.55;;;8.88;;
3747;SDS011;1889;50.058;8.688;2024-01-15T06:50:17;20.30;;;10.28;;
3747;SDS011;1889;50.058;8.688;2024-01-15T06:52:47;22.67;;;11.08;;
3747;SDS011;1889;50.058;8.688;2024-01-15T06:55:15;21.80;;;11.75;;
3747;SDS011;1889;50.058;8.688;2024-01-15T06:57:44;24.65;;;11.20;;
3747;SDS011;1889;50.058;8.688;2024-01-15T07:00:13;21.07;;;11.28;;
3747;SDS011;1889;50.058;8.688;2024-01-15T07:02:42;21.07;;;11.33;;
3747;SDS011;1889;50.058;8.688;2024-01-15T07:05:11;18.02;;;10.48;;
3747;SDS011;1889;50.058;8.688;2024-01-15T07:07:40;20.52;;;10.65;;
3747;SDS011;1889;50.058;8.688;2024-01-15T07:10:08;21.45;;;10.95;;
3747;SDS011;1889;50.058;8.688;2024-01-15T07:12:38;19.20;;;11.15;;
3747;SDS011;1889;50.058;8.688;2024-01-15T07:15:09;22.45;;;11.33;;
3747;SDS011;1889;50.058;8.688;2024-01-15T07:17:38;18.05;;;10.20;;
3747;SDS011;1889;50.058;8.688;2024-01-15T07:20:07;19.50;;;10.20;;
3747;SDS011;1889;50.058;8.688;2024-01-15T07:22:36;18.98;;;10.23;;
3747;SDS011;1889;50.058;8.688;2024-01-15T07:25:05;19.45;;;10.05;;
3747;SDS011;1889;50.058;8.688;2024-01-15T07:27:35;18.82;;;11.35;;
3747;SDS011;1889;50.058;8.688;2024-01-15T07:30:04;20.32;;;11.65;;
3747;SDS011;1889;50.058;8.688;2024-01-15T07:32:33;16.17;;;10.13;;
3747;SDS011;1889;50.058;8.688;2024-01-15T07:35:02;18.55;;;9.33;;
3747;SDS011;1889;50.058;8.688;2024-01-15T07:37:32;14.85;;;9.40;;
3747;SDS011;1889;50.058;8.688;2024-01-15T07:40:00;20.25;;;10.63;;
3747;SDS011;1889;50.058;8.688;2024-01-15T07:42:31;19.20;;;10.58;;
3747;SDS011;1889;50.058;8.688;2024-01-15T07:45:00;19.12;;;10.25;;
3747;SDS011;1889;50.058;8.688;2024-01-15T07:47:29;18.87;;;9.98;;
3747;SDS011;1889;50.058;8.688;2024-01-15T07:49:58;20.15;;;11.00;;
3747;SDS011;1889;50.058;8.688;2024-01-15T07:52:27;17.42;;;9.88;;
3747;SDS011;1889;50.058;8.688;2024-01-15T07:54:56;21.60;;;10.90;;
3747;SDS011;1889;50.058;8.688;2024-01-15T07:57:26;22.13;;;11.00;;
3747;SDS011;1889;50.058;8.688;2024-01-15T07:59:55;17.95;;;9.75;;
3747;SDS011;1889;50.058;8.688;2024-01-15T08:02:25;19.12;;;10.20;;
3747;SDS011;1889;50.058;8.688;2024-01-15T08:04:54;21.33;;;11.00;;
3747;SDS011;1889;50.058;8.688;2024-01-15T08:07:22;18.55;;;9.85;;
3747;SDS011;1889;50.058;8.688;2024-01-15T08:09:52;19.55;;;11.05;;
3747;SDS011;1889;50.058;8.688;2024-01-15T08:12:21;17.48;;;10.25;;
3747;SDS011;1889;50.058;8.688;2024-01-15T08:14:49;17.25;;;9.85;;
3747;SDS011;1889;50.058;8.688;2024-01-15T08:17:18;19.37;;;10.85;;
3747;SDS011;1889;50.058;8.688;2024-01-15T08:19:47;18.40;;;9.38;;
3747;SDS011;1889;50.058;8.688;2024-01-15T08:22:16;19.15;;;9.85;;
3747;SDS011;1889;50.058;8.688;2024-01-15T08:24:44;18.87;;;11.08;;
3747;SDS011;1889;50.058;8.688;2024-01-15T08:27:14;20.95;;;11.08;;
3747;SDS011;1889;50.058;8.688;2024-01-15T08:29:42;19.62;;;10.80;;
3747;SDS011;1889;50.058;8.688;2024-01-15T08:32:11;19.85;;;10.60;;
3747;SDS011;1889;50.058;8.688;2024-01-15T08:34:42;21.82;;;11.18;;
3747;SDS011;1889;50.058;8.688;2024-01-15T08:37:10;17.82;;;10.45;;
3747;SDS011;1889;50.058;8.688;2024-01-15T08:39:40;19.57;;;10.60;;
3747;SDS011;1889;50.058;8.688;2024-01-15T08:42:08;21.62;;;11.12;;
3747;SDS011;1889;50.058;8.688;2024-01-15T08:44:38;17.40;;;10.40;;
3747;SDS011;1889;50.058;8.688;2024-01-15T08:47:08;17.30;;;10.15;;
3747;SDS011;1889;50.058;8.688;2024-01-15T08:49:37;20.27;;;10.90;;
3747;SDS011;1889;50.058;8.688;2024-01-15T08:52:07;18.50;;;10.00;;
3747;SDS011;1889;50.058;8.688;2024-01-15T08:54:36;18.00;;;9.75;;
3747;SDS011;1889;50.058;8.688;2024-01-15T08:57:05;19.98;;;9.70;;
3747;SDS011;1889;50.058;8.688;2024-01-15T08:59:34;13.53;;;9.23;;
3747;SDS011;1889;50.058;8.688;2024-01-15T09:02:03;20.12;;;11.10;;
3747;SDS011;1889;50.058;8.688;2024-01-15T09:04:31;16.97;;;9.40;;
3747;SDS011;1889;50.058;8.688;2024-01-15T09:07:00;15.50;;;9.08;;
3747;SDS011;1889;50.058;8.688;2024-01-15T09:09:29;18.52;;;10.10;;
3747;SDS011;1889;50.058;8.688;2024-01-15T09:11:58;17.60;;;9.63;;
3747;SDS011;1889;50.058;8.688;2024-01-15T09:14:26;18.57;;;9.78;;
3747;SDS011;1889;50.058;8.688;2024-01-15T09:16:55;21.33;;;10.40;;
3747;SDS011;1889;50.058;8.688;2024-01-15T09:19:24;16.70;;;9.18;;
3747;SDS011;1889;50.058;8.688;2024-01-15T09:21:54;17.92;;;10.68;;
3747;SDS011;1889;50.058;8.688;2024-01-15T09:24:23;18.17;;;9.88;;
3747;SDS011;1889;50.058;8.688;2024-01-15T09:26:52;16.55;;;9.15;;
3747;SDS011;1889;50.058;8.688;2024-01-15T09:29:22;19.95;;;9.98;;
3747;SDS011;1889;50.058;8.688;2024-01-15T09:31:51;17.35;;;9.33;;
3747;SDS011;1889;50.058;8.688;2024-01-15T09:34:20;14.85;;;8.95;;
3747;SDS011;1889;50.058;8.688;2024-01-15T09:36:49;16.47;;;8.57;;
3747;SDS011;1889;50.058;8.688;2024-01-15T09:39:18;16.93;;;9.30;;
3747;SDS011;1889;50.058;8.688;2024-01-15T09:41:46;14.65;;;9.00;;
3747;SDS011;1889;50.058;8.688;2024-01-15T09:44:16;18.20;;;9.18;;
3747;SDS011;1889;50.058;8.688;2024-01-15T09:46:46;18.00;;;8.83;;
3747;SDS011;1889;50.058;8.688;2024-01-15T09:49:17;15.30;;;8.93;;
3747;SDS011;1889;50.058;8.688;2024-01-15T09:51:47;13.78;;;8.38;;
3747;SDS011;1889;50.058;8.688;2024-01-15T09:54:16;13.05;;;8.03;;
3747;SDS011;1889;50.058;8.688;2024-01-15T09:56:46;16.32;;;9.15;;
3747;SDS011;1889;50.058;8.688;2024-01-15T09:59:17;12.15;;;7.62;;
3747;SDS011;1889;50.058;8.688;2024-01-15T10:01:48;14.90;;;9.30;;
3747;SDS011;1889;50.058;8.688;2024-01-15T10:04:18;13.65;;;7.92;;
3747;SDS011;1889;50.058;8.688;2024-01-15T10:06:47;13.30;;;7.58;;
3747;SDS011;1889;50.058;8.688;2024-01-15T10:09:19;13.32;;;8.05;;
3747;SDS011;1889;50.058;8.688;2024-01-15T10:11:48;15.65;;;8.85;;
3747;SDS011;1889;50.058;8.688;2024-01-15T10:14:17;13.15;;;7.58;;
3747;SDS011;1889;50.058;8.688;2024-01-15T10:16:47;13.50;;;8.20;;
3747;SDS011;1889;50.058;8.688;2024-01-15T10:19:17;10.85;;;7.42;;
3747;SDS011;1889;50.058;8.688;2024-01-15T10:21:46;13.75;;;7.70;;
3747;SDS011;1889;50.058;8.688;2024-01-15T10:24:15;15.90;;;8.80;;
3747;SDS011;1889;50.058;8.688;2024-01-15T10:26:45;11.25;;;7.53;;
3747;SDS011;1889;50.058;8.688;2024-01-15T10:29:14;14.55;;;8.65;;
3747;SDS011;1889;50.058;8.688;2024-01-15T10:31:44;12.95;;;7.10;;
3747;SDS011;1889;50.058;8.688;2024-01-15T10:34:13;14.33;;;8.63;;
3747;SDS011;1889;50.058;8.688;2024-01-15T10:36:44;13.25;;;7.92;;
3747;SDS011;1889;50.058;8.688;2024-01-15T10:39:15;13.08;;;8.15;;
3747;SDS011;1889;50.058;8.688;2024-01-15T10:41:44;14.13;;;8.35;;
3747;SDS011;1889;50.058;8.688;2024-01-15T10:44:12;14.43;;;8.85;;
3747;SDS011;1889;50.058;8.688;2024-01-15T10:46:42;13.48;;;8.40;;
3747;SDS011;1889;50.058;8.688;2024-01-15T10:49:13;12.73;;;7.90;;
3747;SDS011;1889;50.058;8.688;2024-01-15T10:51:41;9.08;;;6.33;;
3747;SDS011;1889;50.058;8.688;2024-01-15T10:54:10;9.98;;;7.42;;
3747;SDS011;1889;50.058;8.688;2024-01-15T10:56:42;14.13;;;9.28;;
3747;SDS011;1889;50.058;8.688;2024-01-15T10:59:13;13.72;;;8.10;;
3747;SDS011;1889;50.058;8.688;2024-01-15T11:01:42;11.20;;;6.70;;
3747;SDS011;1889;50.058;8.688;2024-01-15T11:04:13;14.05;;;8.63;;
3747;SDS011;1889;50.058;8.688;2024-01-15T11:06:48;12.23;;;8.03;;
3747;SDS011;1889;50.058;8.688;2024-01-15T11:09:19;13.88;;;8.75;;
3747;SDS011;1889;50.058;8.688;2024-01-15T11:11:50;11.95;;;7.83;;
3747;SDS011;1889;50.058;8.688;2024-01-15T11:14:38;13.90;;;8.88;;
3747;SDS011;1889;50.058;8.688;2024-01-15T11:17:18;12.33;;;7.78;;
3747;SDS011;1889;50.058;8.688;2024-01-15T11:19:48;11.90;;;7.50;;
3747;SDS011;1889;50.058;8.688;2024-01-15T11:25:19;12.05;;;7.90;;
3747;SDS011;1889;50.058;8.688;2024-01-15T11:27:50;10.58;;;7.42;;
3747;SDS011;1889;50.058;8.688;2024-01-15T11:30:21;13.72;;;8.15;;
3747;SDS011;1889;50.058;8.688;2024-01-15T11:32:52;11.60;;;8.30;;
3747;SDS011;1889;50.058;8.688;2024-01-15T11:35:22;11.05;;;7.58;;
3747;SDS011;1889;50.058;8.688;2024-01-15T11:43:08;12.53;;;7.87;;
3747;SDS011;1889;50.058;8.688;2024-01-15T11:45:39;9.63;;;6.53;;
3747;SDS011;1889;50.058;8.688;2024-01-15T11:50:46;11.53;;;7.10;;
3747;SDS011;1889;50.058;8.688;2024-01-15T11:53:27;9.78;;;6.35;;
3747;SDS011;1889;50.058;8.688;2024-01-15T11:55:58;9.60;;;7.00;;
3747;SDS011;1889;50.058;8.688;2024-01-15T11:58:28;9.80;;;6.75;;
3747;SDS011;1889;50.058;8.688;2024-01-15T12:00:57;10.43;;;7.08;;
3747;SDS011;1889;50.058;8.688;2024-01-15T12:03:27;12.18;;;8.08;;
3747;SDS011;1889;50.058;8.688;2024-01-15T12:05:56;12.93;;;7.83;;
3747;SDS011;1889;50.058;8.688;2024-01-15T12:08:27;9.95;;;6.80;;
3747;SDS011;1889;50.058;8.688;2024-01-15T12:10:56;11.63;;;7.17;;
3747;SDS011;1889;50.058;8.688;2024-01-15T12:13:25;9.90;;;6.37;;
3747;SDS011;1889;50.058;8.688;2024-01-15T12:15:55;11.48;;;6.80;;
3747;SDS011;1889;50.058;8.688;2024-01-15T12:18:24;11.10;;;7.12;;
3747;SDS011;1889;50.058;8.688;2024-01-15T12:20:55;11.18;;;6.00;;
3747;SDS011;1889;50.058;8.688;2024-01-15T12:23:26;10.58;;;7.15;;
3747;SDS011;1889;50.058;8.688;2024-01-15T12:25:55;11.60;;;7.05;;
3747;SDS011;1889;50.058;8.688;2024-01-15T12:28:27;10.63;;;7.00;;
3747;SDS011;1889;50.058;8.688;2024-01-15T12:30:56;12.93;;;7.30;;
3747;SDS011;1889;50.058;8.688;2024-01-15T12:33:27;9.08;;;6.83;;
3747;SDS011;1889;50.058;8.688;2024-01-15T12:35:56;10.80;;;7.20;;
3747;SDS011;1889;50.058;8.688;2024-01-15T12:38:25;10.55;;;7.12;;
3747;SDS011;1889;50.058;8.688;2024-01-15T12:40:56;9.95;;;6.62;;
3747;SDS011;1889;50.058;8.688;2024-01-15T12:43:26;8.85;;;6.28;;
3747;SDS011;1889;50.058;8.688;2024-01-15T12:45:56;8.78;;;6.28;;
3747;SDS011;1889;50.058;8.688;2024-01-15T12:48:25;10.20;;;7.15;;
3747;SDS011;1889;50.058;8.688;2024-01-15T12:50:55;9.98;;;6.72;;
3747;SDS011;1889;50.058;8.688;2024-01-15T12:53:24;11.78;;;6.92;;
3747;SDS011;1889;50.058;8.688;2024-01-15T12:55:54;9.30;;;6.47;;
3747;SDS011;1889;50.058;8.688;2024-01-15T12:58:23;8.65;;;6.47;;
3747;SDS011;1889;50.058;8.688;2024-01-15T13:00:52;10.15;;;6.62;;
3747;SDS011;1889;50.058;8.688;2024-01-15T13:03:22;9.50;;;6.22;;
3747;SDS011;1889;50.058;8.688;2024-01-15T13:05:51;9.18;;;6.50;;
3747;SDS011;1889;50.058;8.688;2024-01-15T13:08:20;8.63;;;6.00;;
3747;SDS011;1889;50.058;8.688;2024-01-15T13:10:52;8.28;;;6.20;;
3747;SDS011;1889;50.058;8.688;2024-01-15T13:13:23;8.50;;;5.87;;
3747;SDS011;1889;50.058;8.688;2024-01-15T13:15:52;9.43;;;6.35;;
3747;SDS011;1889;50.058;8.688;2024-01-15T13:18:21;8.03;;;5.37;;
3747;SDS011;1889;50.058;8.688;2024-01-15T13:20:51;8.85;;;6.40;;
3747;SDS011;1889;50.058;8.688;2024-01-15T13:23:21;7.80;;;5.53;;
3747;SDS011;1889;50.058;8.688;2024-01-15T13:25:50;9.53;;;6.22;;
3747;SDS011;1889;50.058;8.688;2024-01-15T13:28:20;9.68;;;6.08;;
3747;SDS011;1889;50.058;8.688;2024-01-15T13:30:49;10.40;;;6.72;;
3747;SDS011;1889;50.058;8.688;2024-01-15T13:33:18;6.97;;;5.70;;
3747;SDS011;1889;50.058;8.688;2024-01-15T13:35:48;10.32;;;5.22;;
3747;SDS011;1889;50.058;8.688;2024-01-15T13:38:20;9.03;;;6.03;;
3747;SDS011;1889;50.058;8.688;2024-01-15T13:40:49;8.03;;;5.85;;
3747;SDS011;1889;50.058;8.688;2024-01-15T13:43:18;8.00;;;4.90;;
3747;SDS011;1889;50.058;8.688;2024-01-15T13:45:48;7.50;;;3.92;;
3747;SDS011;1889;50.058;8.688;2024-01-15T13:48:17;8.60;;;5.35;;
3747;SDS011;1889;50.058;8.688;2024-01-15T13:50:47;8.28;;;4.92;;
3747;SDS011;1889;50.058;8.688;2024-01-15T13:53:18;8.68;;;5.37;;
3747;SDS011;1889;50.058;8.688;2024-01-15T13:55:47;10.10;;;5.37;;
3747;SDS011;1889;50.058;8.688;2024-01-15T13:58:16;6.83;;;4.97;;
3747;SDS011;1889;50.058;8.688;2024-01-15T14:00:46;6.95;;;5.22;;
3747;SDS011;1889;50.058;8.688;2024-01-15T14:03:15;7.33;;;4.95;;
3747;SDS011;1889;50.058;8.688;2024-01-15T14:05:46;8.18;;;4.78;;
3747;SDS011;1889;50.058;8.688;2024-01-15T14:08:15;9.88;;;4.47;;
3747;SDS011;1889;50.058;8.688;2024-01-15T14:10:44;5.72;;;4.33;;
3747;SDS011;1889;50.058;8.688;2024-01-15T14:13:14;5.10;;;3.58;;
3747;SDS011;1889;50.058;8.688;2024-01-15T14:15:43;7.30;;;5.22;;
3747;SDS011;1889;50.058;8.688;2024-01-15T14:18:12;6.35;;;4.60;;
3747;SDS011;1889;50.058;8.688;2024-01-15T14:20:42;5.47;;;4.25;;
3747;SDS011;1889;50.058;8.688;2024-01-15T14:23:12;7.22;;;4.22;;
3747;SDS011;1889;50.058;8.688;2024-01-15T14:25:41;7.30;;;4.33;;
3747;SDS011;1889;50.058;8.688;2024-01-15T14:28:11;5.53;;;3.83;;
3747;SDS011;1889;50.058;8.688;2024-01-15T14:30:40;6.47;;;4.58;;
3747;SDS011;1889;50.058;8.688;2024-01-15T14:33:09;5.28;;;3.55;;
3747;SDS011;1889;50.058;8.688;2024-01-15T14:35:39;6.78;;;4.17;;
3747;SDS011;1889;50.058;8.688;2024-01-15T14:38:08;5.65;;;4.22;;
3747;SDS011;1889;50.058;8.688;2024-01-15T14:40:37;4.47;;;3.87;;
3747;SDS011;1889;50.058;8.688;2024-01-15T14:43:07;7.25;;;4.45;;
3747;SDS011;1889;50.058;8.688;2024-01-15T14:45:36;7.03;;;4.33;;
3747;SDS011;1889;50.058;8.688;2024-01-15T14:48:06;8.03;;;4.05;;
3747;SDS011;1889;50.058;8.688;2024-01-15T14:50:35;6.33;;;3.95;;
3747;SDS011;1889;50.058;8.688;2024-01-15T14:53:04;6.08;;;3.92;;
3747;SDS011;1889;50.058;8.688;2024-01-15T14:55:34;5.62;;;3.50;;
3747;SDS011;1889;50.058;8.688;2024-01-15T14:58:03;5.33;;;3.70;;
3747;SDS011;1889;50.058;8.688;2024-01-15T15:00:32;6.62;;;3.95;;
3747;SDS011;1889;50.058;8.688;2024-01-15T15:03:02;4.50;;;3.67;;
3747;SDS011;1889;50.058;8.688;2024-01-15T15:05:32;6.10;;;4.10;;
3747;SDS011;1889;50.058;8.688;2024-01-15T15:08:01;6.20;;;4.17;;
3747;SDS011;1889;50.058;8.688;2024-01-15T15:10:32;5.42;;;3.37;;
3747;SDS011;1889;50.058;8.688;2024-01-15T15:13:01;7.42;;;4.40;;
3747;SDS011;1889;50.058;8.688;2024-01-15T15:15:31;5.35;;;4.15;;
3747;SDS011;1889;50.058;8.688;2024-01-15T15:18:01;6.03;;;3.75;;
3747;SDS011;1889;50.058;8.688;2024-01-15T15:20:31;5.72;;;4.40;;
3747;SDS011;1889;50.058;8.688;2024-01-15T15:23:00;5.60;;;4.00;;
3747;SDS011;1889;50.058;8.688;2024-01-15T15:25:30;6.80;;;3.83;;